sensor_id;sensor_type;location;lat;lon;timestamp;pressure;altitude;pressure_sealevel;temperature;humidity
69153;BME280;56261;51.580;4.578;2023-04-09T00:00:35;102693.00;;;8.05;100.00
69153;BME280;56261;51.580;4.578;2023-04-09T00:03:01;102692.34;;;8.14;100.00
69153;BME280;56261;51.580;4.578;2023-04-09T00:05:26;102693.41;;;8.24;100.00
69153;BME280;56261;51.580;4.578;2023-04-09T00:07:52;102692.34;;;8.40;100.00
69153;BME280;56261;51.580;4.578;2023-04-09T00:10:17;102686.38;;;8.49;100.00
69153;BME280;56261;51.580;4.578;2023-04-09T00:12:42;102688.38;;;8.58;100.00
69153;BME280;56261;51.580;4.578;2023-04-09T00:15:08;102688.88;;;8.63;100.00
69153;BME280;56261;51.580;4.578;2023-04-09T00:17:33;102682.28;;;8.69;100.00
69153;BME280;56261;51.580;4.578;2023-04-09T00:19:59;102686.09;;;8.78;100.00
69153;BME280;56261;51.580;4.578;2023-04-09T00:22:25;102683.28;;;8.79;100.00
69153;BME280;56261;51.580;4.578;2023-04-09T00:24:50;102679.09;;;8.88;100.00
69153;BME280;56261;51.580;4.578;2023-04-09T00:27:16;102678.66;;;8.94;100.00
69153;BME280;56261;51.580;4.578;2023-04-09T00:29:41;102684.81;;;8.94;100.00
69153;BME280;56261;51.580;4.578;2023-04-09T00:32:07;102673.00;;;8.99;100.00
69153;BME280;56261;51.580;4.578;2023-04-09T00:34:32;102670.81;;;9.04;100.00
69153;BME280;56261;51.580;4.578;2023-04-09T00:36:57;102672.19;;;9.09;100.00
69153;BME280;56261;51.580;4.578;2023-04-09T00:39:23;102669.88;;;9.05;100.00
69153;BME280;56261;51.580;4.578;2023-04-09T00:41:48;102668.69;;;9.09;100.00
69153;BME280;56261;51.580;4.578;2023-04-09T00:44:13;102668.09;;;9.17;100.00
69153;BME280;56261;51.580;4.578;2023-04-09T00:46:39;102661.25;;;9.25;100.00
69153;BME280;56261;51.580;4.578;2023-04-09T00:49:05;102668.00;;;9.18;100.00
69153;BME280;56261;51.580;4.578;2023-04-09T00:51:30;102658.34;;;9.28;100.00
69153;BME280;56261;51.580;4.578;2023-04-09T00:53:57;102660.91;;;9.30;100.00
69153;BME280;56261;51.580;4.578;2023-04-09T00:56:23;102652.19;;;9.39;100.00
69153;BME280;56261;51.580;4.578;2023-04-09T00:58:49;102666.34;;;9.40;100.00
69153;BME280;56261;51.580;4.578;2023-04-09T01:01:15;102650.88;;;9.33;100.00
69153;BME280;56261;51.580;4.578;2023-04-09T01:03:40;102645.41;;;9.35;100.00
69153;BME280;56261;51.580;4.578;2023-04-09T01:06:09;102652.81;;;9.43;100.00
69153;BME280;56261;51.580;4.578;2023-04-09T01:11:31;102652.75;;;9.55;100.00
69153;BME280;56261;51.580;4.578;2023-04-09T01:16:34;102650.78;;;9.57;100.00
69153;BME280;56261;51.580;4.578;2023-04-09T01:19:36;102648.00;;;9.59;100.00
69153;BME280;56261;51.580;4.578;2023-04-09T01:22:04;102646.44;;;9.68;100.00
69153;BME280;56261;51.580;4.578;2023-04-09T01:27:05;102647.91;;;9.61;100.00
69153;BME280;56261;51.580;4.578;2023-04-09T01:29:34;102648.38;;;9.66;100.00
69153;BME280;56261;51.580;4.578;2023-04-09T01:32:02;102632.28;;;9.67;100.00
69153;BME280;56261;51.580;4.578;2023-04-09T01:34:29;102642.47;;;9.73;100.00
69153;BME280;56261;51.580;4.578;2023-04-09T01:36:57;102641.84;;;9.70;100.00
69153;BME280;56261;51.580;4.578;2023-04-09T01:39:24;102640.50;;;9.75;100.00
69153;BME280;56261;51.580;4.578;2023-04-09T01:41:50;102651.53;;;9.71;100.00
69153;BME280;56261;51.580;4.578;2023-04-09T01:44:18;102643.78;;;9.68;100.00
69153;BME280;56261;51.580;4.578;2023-04-09T01:46:47;102644.13;;;9.63;100.00
69153;BME280;56261;51.580;4.578;2023-04-09T01:49:13;102653.09;;;9.62;100.00
69153;BME280;56261;51.580;4.578;2023-04-09T01:51:39;102645.34;;;9.70;100.00
69153;BME280;56261;51.580;4.578;2023-04-09T01:54:05;102642.81;;;9.69;100.00
69153;BME280;56261;51.580;4.578;2023-04-09T01:56:45;102648.66;;;9.74;100.00
69153;BME280;56261;51.580;4.578;2023-04-09T01:59:12;102646.19;;;9.71;100.00
69153;BME280;56261;51.580;4.578;2023-04-09T02:01:46;102642.47;;;9.85;100.00
69153;BME280;56261;51.580;4.578;2023-04-09T02:04:22;102633.84;;;9.70;100.00
69153;BME280;56261;51.580;4.578;2023-04-09T02:09:19;102636.16;;;9.74;100.00
69153;BME280;56261;51.580;4.578;2023-04-09T02:11:46;102640.50;;;9.75;100.00
69153;BME280;56261;51.580;4.578;2023-04-09T02:14:14;102636.63;;;9.57;100.00
69153;BME280;56261;51.580;4.578;2023-04-09T02:16:40;102633.03;;;9.69;100.00
69153;BME280;56261;51.580;4.578;2023-04-09T02:19:06;102642.22;;;9.76;100.00
69153;BME280;56261;51.580;4.578;2023-04-09T02:21:32;102633.50;;;9.74;100.00
69153;BME280;56261;51.580;4.578;2023-04-09T02:23:57;102633.38;;;9.65;100.00
69153;BME280;56261;51.580;4.578;2023-04-09T02:26:23;102632.50;;;9.64;100.00
69153;BME280;56261;51.580;4.578;2023-04-09T02:28:49;102628.78;;;9.67;100.00
69153;BME280;56261;51.580;4.578;2023-04-09T02:31:15;102634.94;;;9.67;100.00
69153;BME280;56261;51.580;4.578;2023-04-09T02:33:40;102627.31;;;9.74;100.00
69153;BME280;56261;51.580;4.578;2023-04-09T02:36:10;102625.50;;;9.74;100.00
69153;BME280;56261;51.580;4.578;2023-04-09T02:38:35;102625.03;;;9.81;100.00
69153;BME280;56261;51.580;4.578;2023-04-09T02:41:01;102626.50;;;9.85;100.00
69153;BME280;56261;51.580;4.578;2023-04-09T02:43:26;102619.81;;;9.79;100.00
69153;BME280;56261;51.580;4.578;2023-04-09T02:45:52;102619.69;;;9.81;100.00
69153;BME280;56261;51.580;4.578;2023-04-09T02:48:17;102624.03;;;9.82;100.00
69153;BME280;56261;51.580;4.578;2023-04-09T02:50:42;102621.53;;;9.80;100.00
69153;BME280;56261;51.580;4.578;2023-04-09T02:53:08;102614.59;;;9.77;100.00
69153;BME280;56261;51.580;4.578;2023-04-09T02:55:33;102609.25;;;9.89;100.00
69153;BME280;56261;51.580;4.578;2023-04-09T02:57:58;102616.66;;;9.96;100.00
69153;BME280;56261;51.580;4.578;2023-04-09T03:00:24;102614.94;;;9.95;100.00
69153;BME280;56261;51.580;4.578;2023-04-09T03:02:49;102606.97;;;9.95;100.00
69153;BME280;56261;51.580;4.578;2023-04-09T03:05:15;102608.69;;;9.85;100.00
69153;BME280;56261;51.580;4.578;2023-04-09T03:07:40;102615.09;;;9.83;100.00
69153;BME280;56261;51.580;4.578;2023-04-09T03:10:05;102616.41;;;9.88;100.00
69153;BME280;56261;51.580;4.578;2023-04-09T03:12:31;102597.41;;;9.93;100.00
69153;BME280;56261;51.580;4.578;2023-04-09T03:14:56;102601.41;;;9.87;100.00
69153;BME280;56261;51.580;4.578;2023-04-09T03:17:22;102595.81;;;9.90;100.00
69153;BME280;56261;51.580;4.578;2023-04-09T03:19:51;102594.38;;;9.86;100.00
69153;BME280;56261;51.580;4.578;2023-04-09T03:22:16;102590.38;;;9.92;100.00
69153;BME280;56261;51.580;4.578;2023-04-09T03:24:42;102602.00;;;9.91;100.00
69153;BME280;56261;51.580;4.578;2023-04-09T03:27:07;102589.75;;;10.00;100.00
69153;BME280;56261;51.580;4.578;2023-04-09T03:29:32;102594.50;;;9.96;100.00
69153;BME280;56261;51.580;4.578;2023-04-09T03:31:58;102584.78;;;9.95;100.00
69153;BME280;56261;51.580;4.578;2023-04-09T03:34:23;102582.25;;;9.93;100.00
69153;BME280;56261;51.580;4.578;2023-04-09T03:36:48;102585.88;;;9.92;100.00
69153;BME280;56261;51.580;4.578;2023-04-09T03:39:14;102575.59;;;9.88;100.00
69153;BME280;56261;51.580;4.578;2023-04-09T03:41:39;102574.75;;;9.87;100.00
69153;BME280;56261;51.580;4.578;2023-04-09T03:44:05;102574.13;;;9.95;100.00
69153;BME280;56261;51.580;4.578;2023-04-09T03:46:30;102574.88;;;9.97;100.00
69153;BME280;56261;51.580;4.578;2023-04-09T03:48:56;102578.16;;;9.78;100.00
69153;BME280;56261;51.580;4.578;2023-04-09T03:51:21;102581.53;;;9.91;100.00
69153;BME280;56261;51.580;4.578;2023-04-09T03:53:46;102575.69;;;9.97;100.00
69153;BME280;56261;51.580;4.578;2023-04-09T03:56:12;102569.88;;;10.04;100.00
69153;BME280;56261;51.580;4.578;2023-04-09T03:58:37;102574.13;;;10.06;100.00
69153;BME280;56261;51.580;4.578;2023-04-09T04:01:02;102559.84;;;10.07;100.00
69153;BME280;56261;51.580;4.578;2023-04-09T04:03:28;102560.78;;;10.06;100.00
69153;BME280;56261;51.580;4.578;2023-04-09T04:05:59;102566.25;;;10.05;100.00
69153;BME280;56261;51.580;4.578;2023-04-09T04:08:28;102551.94;;;10.06;100.00
69153;BME280;56261;51.580;4.578;2023-04-09T04:10:53;102573.41;;;9.93;100.00
69153;BME280;56261;51.580;4.578;2023-04-09T04:13:19;102568.34;;;9.90;100.00
69153;BME280;56261;51.580;4.578;2023-04-09T04:15:45;102566.63;;;9.89;100.00
69153;BME280;56261;51.580;4.578;2023-04-09T04:18:10;102569.63;;;9.95;100.00
69153;BME280;56261;51.580;4.578;2023-04-09T04:20:36;102564.19;;;9.97;100.00
69153;BME280;56261;51.580;4.578;2023-04-09T04:23:03;102575.34;;;9.91;100.00
69153;BME280;56261;51.580;4.578;2023-04-09T04:25:29;102563.59;;;9.93;100.00
69153;BME280;56261;51.580;4.578;2023-04-09T04:27:55;102560.31;;;10.01;100.00
69153;BME280;56261;51.580;4.578;2023-04-09T04:30:20;102563.72;;;9.92;100.00
69153;BME280;56261;51.580;4.578;2023-04-09T04:32:47;102553.66;;;9.95;100.00
69153;BME280;56261;51.580;4.578;2023-04-09T04:35:12;102565.03;;;9.97;100.00
69153;BME280;56261;51.580;4.578;2023-04-09T04:37:38;102568.94;;;10.05;100.00
69153;BME280;56261;51.580;4.578;2023-04-09T04:40:05;102571.72;;;9.92;100.00
69153;BME280;56261;51.580;4.578;2023-04-09T04:42:31;102562.38;;;9.97;100.00
69153;BME280;56261;51.580;4.578;2023-04-09T04:44:56;102565.19;;;9.96;100.00
69153;BME280;56261;51.580;4.578;2023-04-09T04:47:21;102566.03;;;9.96;100.00
69153;BME280;56261;51.580;4.578;2023-04-09T04:49:47;102566.88;;;9.97;100.00
69153;BME280;56261;51.580;4.578;2023-04-09T04:52:12;102572.66;;;10.02;100.00
69153;BME280;56261;51.580;4.578;2023-04-09T04:54:38;102560.72;;;9.85;100.00
69153;BME280;56261;51.580;4.578;2023-04-09T04:57:03;102565.66;;;9.90;100.00
69153;BME280;56261;51.580;4.578;2023-04-09T04:59:28;102562.75;;;9.93;100.00
69153;BME280;56261;51.580;4.578;2023-04-09T05:01:54;102561.53;;;9.97;100.00
69153;BME280;56261;51.580;4.578;2023-04-09T05:04:19;102576.44;;;9.88;100.00
69153;BME280;56261;51.580;4.578;2023-04-09T05:06:45;102579.09;;;10.00;100.00
69153;BME280;56261;51.580;4.578;2023-04-09T05:09:10;102576.94;;;10.05;100.00
69153;BME280;56261;51.580;4.578;2023-04-09T05:11:36;102568.06;;;10.04;100.00
69153;BME280;56261;51.580;4.578;2023-04-09T05:14:01;102573.63;;;10.12;100.00
69153;BME280;56261;51.580;4.578;2023-04-09T05:16:27;102576.28;;;10.12;100.00
69153;BME280;56261;51.580;4.578;2023-04-09T05:18:53;102576.41;;;10.11;100.00
69153;BME280;56261;51.580;4.578;2023-04-09T05:21:18;102580.19;;;10.08;100.00
69153;BME280;56261;51.580;4.578;2023-04-09T05:23:43;102581.66;;;10.01;100.00
69153;BME280;56261;51.580;4.578;2023-04-09T05:26:09;102581.66;;;10.01;100.00
69153;BME280;56261;51.580;4.578;2023-04-09T05:28:34;102582.97;;;10.07;100.00
69153;BME280;56261;51.580;4.578;2023-04-09T05:31:00;102582.63;;;10.11;100.00
69153;BME280;56261;51.580;4.578;2023-04-09T05:33:26;102586.50;;;10.07;100.00
69153;BME280;56261;51.580;4.578;2023-04-09T05:35:51;102583.47;;;10.01;100.00
69153;BME280;56261;51.580;4.578;2023-04-09T05:38:16;102591.69;;;10.09;100.00
69153;BME280;56261;51.580;4.578;2023-04-09T05:40:42;102584.91;;;10.16;100.00
69153;BME280;56261;51.580;4.578;2023-04-09T05:43:10;102587.94;;;10.23;100.00
69153;BME280;56261;51.580;4.578;2023-04-09T05:45:35;102589.53;;;10.03;100.00
69153;BME280;56261;51.580;4.578;2023-04-09T05:48:01;102593.63;;;9.95;100.00
69153;BME280;56261;51.580;4.578;2023-04-09T05:50:26;102588.66;;;10.02;100.00
69153;BME280;56261;51.580;4.578;2023-04-09T05:52:52;102592.56;;;10.09;100.00
69153;BME280;56261;51.580;4.578;2023-04-09T05:55:17;102591.81;;;10.07;100.00
69153;BME280;56261;51.580;4.578;2023-04-09T05:57:43;102581.38;;;10.04;100.00
69153;BME280;56261;51.580;4.578;2023-04-09T06:00:10;102585.75;;;10.16;100.00
69153;BME280;56261;51.580;4.578;2023-04-09T06:02:35;102585.38;;;10.21;100.00
69153;BME280;56261;51.580;4.578;2023-04-09T06:05:00;102595.69;;;10.14;100.00
69153;BME280;56261;51.580;4.578;2023-04-09T06:07:26;102587.06;;;10.22;100.00
69153;BME280;56261;51.580;4.578;2023-04-09T06:09:52;102581.88;;;10.32;100.00
69153;BME280;56261;51.580;4.578;2023-04-09T06:12:17;102583.66;;;10.31;100.00
69153;BME280;56261;51.580;4.578;2023-04-09T06:14:43;102582.22;;;10.38;100.00
69153;BME280;56261;51.580;4.578;2023-04-09T06:17:08;102594.56;;;10.39;100.00
69153;BME280;56261;51.580;4.578;2023-04-09T06:19:33;102583.19;;;10.37;100.00
69153;BME280;56261;51.580;4.578;2023-04-09T06:21:59;102594.47;;;10.30;100.00
69153;BME280;56261;51.580;4.578;2023-04-09T06:24:24;102602.84;;;10.36;100.00
69153;BME280;56261;51.580;4.578;2023-04-09T06:26:50;102596.41;;;10.39;100.00
69153;BME280;56261;51.580;4.578;2023-04-09T06:29:15;102596.88;;;10.33;100.00
69153;BME280;56261;51.580;4.578;2023-04-09T06:31:40;102599.31;;;10.36;100.00
69153;BME280;56261;51.580;4.578;2023-04-09T06:34:06;102602.69;;;10.38;100.00
69153;BME280;56261;51.580;4.578;2023-04-09T06:36:32;102607.91;;;10.39;100.00
69153;BME280;56261;51.580;4.578;2023-04-09T06:38:58;102604.16;;;10.31;100.00
69153;BME280;56261;51.580;4.578;2023-04-09T06:41:25;102604.63;;;10.25;100.00
69153;BME280;56261;51.580;4.578;2023-04-09T06:43:51;102601.66;;;10.29;100.00
69153;BME280;56261;51.580;4.578;2023-04-09T06:46:17;102607.41;;;10.46;100.00
69153;BME280;56261;51.580;4.578;2023-04-09T06:48:44;102610.84;;;10.36;100.00
69153;BME280;56261;51.580;4.578;2023-04-09T06:51:10;102609.50;;;10.19;100.00
69153;BME280;56261;51.580;4.578;2023-04-09T06:53:37;102609.84;;;10.26;100.00
69153;BME280;56261;51.580;4.578;2023-04-09T06:56:02;102605.88;;;10.32;100.00
69153;BME280;56261;51.580;4.578;2023-04-09T06:58:28;102606.09;;;10.17;100.00
69153;BME280;56261;51.580;4.578;2023-04-09T07:00:53;102613.16;;;10.30;100.00
69153;BME280;56261;51.580;4.578;2023-04-09T07:03:19;102607.91;;;10.28;100.00
69153;BME280;56261;51.580;4.578;2023-04-09T07:05:45;102604.28;;;10.41;100.00
69153;BME280;56261;51.580;4.578;2023-04-09T07:08:10;102599.91;;;10.17;100.00
69153;BME280;56261;51.580;4.578;2023-04-09T07:10:36;102606.09;;;10.29;100.00
69153;BME280;56261;51.580;4.578;2023-04-09T07:13:02;102601.38;;;10.21;100.00
69153;BME280;56261;51.580;4.578;2023-04-09T07:15:27;102597.13;;;10.41;100.00
69153;BME280;56261;51.580;4.578;2023-04-09T07:17:52;102600.03;;;10.38;100.00
69153;BME280;56261;51.580;4.578;2023-04-09T07:20:18;102592.97;;;10.48;100.00
69153;BME280;56261;51.580;4.578;2023-04-09T07:22:43;102593.19;;;10.56;100.00
69153;BME280;56261;51.580;4.578;2023-04-09T07:25:09;102594.75;;;10.59;100.00
69153;BME280;56261;51.580;4.578;2023-04-09T07:27:34;102595.53;;;10.50;100.00
69153;BME280;56261;51.580;4.578;2023-04-09T07:29:59;102601.06;;;10.58;100.00
69153;BME280;56261;51.580;4.578;2023-04-09T07:32:25;102599.41;;;10.78;100.00
69153;BME280;56261;51.580;4.578;2023-04-09T07:34:55;102596.16;;;10.74;100.00
69153;BME280;56261;51.580;4.578;2023-04-09T07:37:21;102600.13;;;10.80;100.00
69153;BME280;56261;51.580;4.578;2023-04-09T07:39:47;102599.97;;;10.93;100.00
69153;BME280;56261;51.580;4.578;2023-04-09T07:42:13;102601.66;;;10.94;100.00
69153;BME280;56261;51.580;4.578;2023-04-09T07:44:39;102594.69;;;11.02;100.00
69153;BME280;56261;51.580;4.578;2023-04-09T07:47:06;102600.09;;;10.91;100.00
69153;BME280;56261;51.580;4.578;2023-04-09T07:49:31;102595.78;;;11.00;100.00
69153;BME280;56261;51.580;4.578;2023-04-09T07:51:58;102587.88;;;11.10;100.00
69153;BME280;56261;51.580;4.578;2023-04-09T07:54:24;102587.94;;;11.19;100.00
69153;BME280;56261;51.580;4.578;2023-04-09T07:56:50;102587.31;;;11.58;100.00
69153;BME280;56261;51.580;4.578;2023-04-09T07:59:16;102578.78;;;11.95;100.00
69153;BME280;56261;51.580;4.578;2023-04-09T08:01:42;102583.59;;;12.11;100.00
69153;BME280;56261;51.580;4.578;2023-04-09T08:04:08;102579.81;;;12.13;100.00
69153;BME280;56261;51.580;4.578;2023-04-09T08:06:34;102582.34;;;12.15;100.00
69153;BME280;56261;51.580;4.578;2023-04-09T08:09:00;102574.50;;;12.33;100.00
69153;BME280;56261;51.580;4.578;2023-04-09T08:11:26;102577.91;;;12.83;100.00
69153;BME280;56261;51.580;4.578;2023-04-09T08:13:51;102572.56;;;12.93;100.00
69153;BME280;56261;51.580;4.578;2023-04-09T08:16:17;102570.16;;;12.51;100.00
69153;BME280;56261;51.580;4.578;2023-04-09T08:18:42;102577.31;;;12.41;100.00
69153;BME280;56261;51.580;4.578;2023-04-09T08:21:08;102579.69;;;12.34;100.00
69153;BME280;56261;51.580;4.578;2023-04-09T08:23:33;102576.91;;;12.36;100.00
69153;BME280;56261;51.580;4.578;2023-04-09T08:25:59;102578.91;;;12.03;100.00
69153;BME280;56261;51.580;4.578;2023-04-09T08:28:24;102584.13;;;11.95;100.00
69153;BME280;56261;51.580;4.578;2023-04-09T08:30:50;102585.78;;;12.56;100.00
69153;BME280;56261;51.580;4.578;2023-04-09T08:33:16;102581.78;;;13.47;100.00
69153;BME280;56261;51.580;4.578;2023-04-09T08:35:41;102585.88;;;13.79;100.00
69153;BME280;56261;51.580;4.578;2023-04-09T08:38:07;102584.91;;;13.80;100.00
69153;BME280;56261;51.580;4.578;2023-04-09T08:40:33;102589.53;;;13.41;100.00
69153;BME280;56261;51.580;4.578;2023-04-09T08:43:03;102576.53;;;13.46;100.00
69153;BME280;56261;51.580;4.578;2023-04-09T08:45:29;102586.16;;;13.48;100.00
69153;BME280;56261;51.580;4.578;2023-04-09T08:47:54;102582.97;;;12.96;100.00
69153;BME280;56261;51.580;4.578;2023-04-09T08:50:24;102586.34;;;12.98;100.00
69153;BME280;56261;51.580;4.578;2023-04-09T08:52:49;102578.44;;;13.36;100.00
69153;BME280;56261;51.580;4.578;2023-04-09T08:55:15;102584.34;;;13.10;100.00
69153;BME280;56261;51.580;4.578;2023-04-09T08:57:41;102576.50;;;12.79;100.00
69153;BME280;56261;51.580;4.578;2023-04-09T09:00:07;102585.94;;;12.64;100.00
69153;BME280;56261;51.580;4.578;2023-04-09T09:02:34;102583.38;;;13.68;100.00
69153;BME280;56261;51.580;4.578;2023-04-09T09:04:59;102575.78;;;13.63;100.00
69153;BME280;56261;51.580;4.578;2023-04-09T09:07:29;102579.53;;;13.43;100.00
69153;BME280;56261;51.580;4.578;2023-04-09T09:09:59;102578.69;;;13.33;100.00
69153;BME280;56261;51.580;4.578;2023-04-09T09:12:41;102568.41;;;13.18;100.00
69153;BME280;56261;51.580;4.578;2023-04-09T09:15:28;102572.22;;;13.73;100.00
69153;BME280;56261;51.580;4.578;2023-04-09T09:17:55;102577.38;;;13.56;100.00
69153;BME280;56261;51.580;4.578;2023-04-09T09:20:22;102582.88;;;13.55;100.00
69153;BME280;56261;51.580;4.578;2023-04-09T09:22:52;102581.59;;;13.59;100.00
69153;BME280;56261;51.580;4.578;2023-04-09T09:25:17;102577.84;;;13.13;100.00
69153;BME280;56261;51.580;4.578;2023-04-09T09:27:47;102575.63;;;12.50;100.00
69153;BME280;56261;51.580;4.578;2023-04-09T09:30:20;102577.16;;;13.20;100.00
69153;BME280;56261;51.580;4.578;2023-04-09T09:32:46;102571.72;;;14.15;100.00
69153;BME280;56261;51.580;4.578;2023-04-09T09:35:11;102554.19;;;14.92;100.00
69153;BME280;56261;51.580;4.578;2023-04-09T09:37:37;102560.47;;;13.83;100.00
69153;BME280;56261;51.580;4.578;2023-04-09T09:40:02;102560.25;;;13.95;100.00
69153;BME280;56261;51.580;4.578;2023-04-09T09:42:28;102555.38;;;14.71;100.00
69153;BME280;56261;51.580;4.578;2023-04-09T09:44:54;102550.69;;;14.91;100.00
69153;BME280;56261;51.580;4.578;2023-04-09T09:47:21;102549.50;;;15.20;100.00
69153;BME280;56261;51.580;4.578;2023-04-09T09:49:52;102547.81;;;15.71;100.00
69153;BME280;56261;51.580;4.578;2023-04-09T09:52:27;102545.34;;;16.62;100.00
69153;BME280;56261;51.580;4.578;2023-04-09T09:54:55;102550.38;;;17.06;100.00
69153;BME280;56261;51.580;4.578;2023-04-09T09:57:24;102542.81;;;16.60;100.00
69153;BME280;56261;51.580;4.578;2023-04-09T09:59:53;102539.63;;;16.73;100.00
69153;BME280;56261;51.580;4.578;2023-04-09T10:02:22;102540.13;;;15.85;100.00
69153;BME280;56261;51.580;4.578;2023-04-09T10:04:49;102544.56;;;14.63;100.00
69153;BME280;56261;51.580;4.578;2023-04-09T10:07:18;102526.50;;;14.38;100.00
69153;BME280;56261;51.580;4.578;2023-04-09T10:09:48;102532.41;;;14.77;100.00
69153;BME280;56261;51.580;4.578;2023-04-09T10:12:15;102533.34;;;14.50;100.00
69153;BME280;56261;51.580;4.578;2023-04-09T10:14:41;102532.06;;;14.72;100.00
69153;BME280;56261;51.580;4.578;2023-04-09T10:17:07;102534.88;;;14.52;100.00
69153;BME280;56261;51.580;4.578;2023-04-09T10:19:37;102518.53;;;14.82;100.00
69153;BME280;56261;51.580;4.578;2023-04-09T10:22:10;102511.44;;;14.99;100.00
69153;BME280;56261;51.580;4.578;2023-04-09T10:24:38;102513.09;;;15.26;100.00
69153;BME280;56261;51.580;4.578;2023-04-09T10:27:11;102512.69;;;15.47;100.00
69153;BME280;56261;51.580;4.578;2023-04-09T10:29:44;102510.28;;;15.35;100.00
69153;BME280;56261;51.580;4.578;2023-04-09T10:32:10;102509.13;;;15.38;100.00
69153;BME280;56261;51.580;4.578;2023-04-09T10:34:41;102510.22;;;15.19;100.00
69153;BME280;56261;51.580;4.578;2023-04-09T10:37:13;102510.56;;;14.72;100.00
69153;BME280;56261;51.580;4.578;2023-04-09T10:39:40;102507.41;;;14.41;100.00
69153;BME280;56261;51.580;4.578;2023-04-09T10:42:34;102499.50;;;14.75;100.00
69153;BME280;56261;51.580;4.578;2023-04-09T10:45:12;102484.13;;;15.46;100.00
69153;BME280;56261;51.580;4.578;2023-04-09T10:47:39;102480.59;;;15.45;100.00
69153;BME280;56261;51.580;4.578;2023-04-09T10:50:25;102482.13;;;14.87;100.00
69153;BME280;56261;51.580;4.578;2023-04-09T10:52:54;102480.44;;;15.12;100.00
69153;BME280;56261;51.580;4.578;2023-04-09T10:55:48;102480.25;;;15.74;100.00
69153;BME280;56261;51.580;4.578;2023-04-09T10:58:14;102483.66;;;15.93;100.00
69153;BME280;56261;51.580;4.578;2023-04-09T11:00:41;102473.22;;;15.98;100.00
69153;BME280;56261;51.580;4.578;2023-04-09T11:03:33;102463.66;;;15.53;100.00
69153;BME280;56261;51.580;4.578;2023-04-09T11:06:05;102463.47;;;15.97;100.00
69153;BME280;56261;51.580;4.578;2023-04-09T11:08:36;102468.69;;;15.56;100.00
69153;BME280;56261;51.580;4.578;2023-04-09T11:11:06;102472.84;;;15.34;100.00
69153;BME280;56261;51.580;4.578;2023-04-09T11:13:32;102464.63;;;15.44;100.00
69153;BME280;56261;51.580;4.578;2023-04-09T11:15:58;102447.66;;;15.94;100.00
69153;BME280;56261;51.580;4.578;2023-04-09T11:18:26;102458.59;;;15.50;100.00
69153;BME280;56261;51.580;4.578;2023-04-09T11:20:56;102465.16;;;15.13;100.00
69153;BME280;56261;51.580;4.578;2023-04-09T11:23:22;102459.59;;;15.49;100.00
69153;BME280;56261;51.580;4.578;2023-04-09T11:25:49;102458.53;;;15.76;100.00
69153;BME280;56261;51.580;4.578;2023-04-09T11:28:15;102450.88;;;16.14;100.00
69153;BME280;56261;51.580;4.578;2023-04-09T11:30:40;102445.50;;;16.06;100.00
69153;BME280;56261;51.580;4.578;2023-04-09T11:33:08;102447.19;;;15.56;100.00
69153;BME280;56261;51.580;4.578;2023-04-09T11:35:33;102453.81;;;15.27;100.00
69153;BME280;56261;51.580;4.578;2023-04-09T11:38:04;102438.31;;;15.64;100.00
69153;BME280;56261;51.580;4.578;2023-04-09T11:40:30;102441.28;;;15.95;100.00
69153;BME280;56261;51.580;4.578;2023-04-09T11:42:55;102438.88;;;15.75;100.00
69153;BME280;56261;51.580;4.578;2023-04-09T11:45:24;102442.09;;;15.79;100.00
69153;BME280;56261;51.580;4.578;2023-04-09T11:47:50;102453.22;;;16.09;100.00
69153;BME280;56261;51.580;4.578;2023-04-09T11:50:16;102447.69;;;16.51;100.00
69153;BME280;56261;51.580;4.578;2023-04-09T11:52:44;102445.13;;;16.91;100.00
69153;BME280;56261;51.580;4.578;2023-04-09T11:55:25;102443.63;;;16.23;100.00
69153;BME280;56261;51.580;4.578;2023-04-09T11:57:52;102449.88;;;15.98;100.00
69153;BME280;56261;51.580;4.578;2023-04-09T12:00:19;102438.75;;;16.18;100.00
69153;BME280;56261;51.580;4.578;2023-04-09T12:02:46;102439.59;;;16.02;100.00
69153;BME280;56261;51.580;4.578;2023-04-09T12:05:20;102428.50;;;15.97;100.00
69153;BME280;56261;51.580;4.578;2023-04-09T12:07:46;102422.25;;;16.05;100.00
69153;BME280;56261;51.580;4.578;2023-04-09T12:10:11;102427.63;;;15.72;100.00
69153;BME280;56261;51.580;4.578;2023-04-09T12:12:46;102427.50;;;15.47;100.00
69153;BME280;56261;51.580;4.578;2023-04-09T12:15:20;102440.78;;;16.00;100.00
69153;BME280;56261;51.580;4.578;2023-04-09T12:17:56;102445.50;;;16.47;100.00
69153;BME280;56261;51.580;4.578;2023-04-09T12:22:51;102433.75;;;17.20;100.00
69153;BME280;56261;51.580;4.578;2023-04-09T12:25:16;102432.31;;;16.76;100.00
69153;BME280;56261;51.580;4.578;2023-04-09T12:27:41;102434.50;;;16.97;100.00
69153;BME280;56261;51.580;4.578;2023-04-09T12:30:07;102425.31;;;16.51;100.00
69153;BME280;56261;51.580;4.578;2023-04-09T12:32:32;102427.75;;;17.01;100.00
69153;BME280;56261;51.580;4.578;2023-04-09T12:34:58;102436.75;;;16.86;100.00
69153;BME280;56261;51.580;4.578;2023-04-09T12:37:23;102442.44;;;16.91;100.00
69153;BME280;56261;51.580;4.578;2023-04-09T12:39:49;102428.81;;;16.59;100.00
69153;BME280;56261;51.580;4.578;2023-04-09T12:42:14;102430.47;;;16.85;100.00
69153;BME280;56261;51.580;4.578;2023-04-09T12:44:40;102431.69;;;16.50;100.00
69153;BME280;56261;51.580;4.578;2023-04-09T12:47:05;102438.09;;;16.40;100.00
69153;BME280;56261;51.580;4.578;2023-04-09T12:49:32;102435.03;;;16.52;100.00
69153;BME280;56261;51.580;4.578;2023-04-09T12:51:57;102430.69;;;16.59;100.00
69153;BME280;56261;51.580;4.578;2023-04-09T12:54:22;102437.06;;;16.66;100.00